createdAt,value
2022-11-05T00:03:13.464Z,13.47
2022-11-05T00:08:20.181Z,16.05
2022-11-05T00:13:27.214Z,14.64
2022-11-05T00:18:34.195Z,13.83
2022-11-05T00:23:41.099Z,15.24
2022-11-05T00:28:48.070Z,12.25
2022-11-05T00:33:55.036Z,15.39
2022-11-05T00:39:02.017Z,15.85
2022-11-05T00:44:08.991Z,13.74
2022-11-05T00:49:16.028Z,13.27
2022-11-05T00:54:23.116Z,16.84
2022-11-05T00:59:30.119Z,13.54
2022-11-05T01:04:37.238Z,12.69
2022-11-05T01:09:44.173Z,12.36
2022-11-05T01:14:51.270Z,12.13
2022-11-05T01:19:58.186Z,11.61
2022-11-05T01:25:05.185Z,11.19
2022-11-05T01:30:12.116Z,8.85
2022-11-05T01:35:19.249Z,10.01
2022-11-05T01:40:26.194Z,7.08
2022-11-05T01:45:33.160Z,8.42
2022-11-05T01:50:40.085Z,7.29
2022-11-05T01:55:47.197Z,7.48
2022-11-05T02:00:54.121Z,6.37
2022-11-05T02:06:01.126Z,9.44
2022-11-05T02:11:08.027Z,5.44
2022-11-05T02:16:14.993Z,6.07
2022-11-05T02:21:21.915Z,7.56
2022-11-05T02:26:28.944Z,5.75
2022-11-05T02:31:35.898Z,5.26
2022-11-05T02:36:42.840Z,5.06
2022-11-05T02:41:49.834Z,3.86
2022-11-05T02:46:56.873Z,2.69
2022-11-05T02:52:03.832Z,4.91
2022-11-05T02:57:10.891Z,5.02
2022-11-05T03:02:17.854Z,3.58
2022-11-05T03:07:24.868Z,3.01
2022-11-05T03:12:31.796Z,2.58
2022-11-05T03:17:38.879Z,3.64
2022-11-05T03:22:45.968Z,2.87
2022-11-05T03:27:52.898Z,3.34
2022-11-05T03:33:00.054Z,2.30
2022-11-05T03:38:07.037Z,3.62
2022-11-05T03:43:14.313Z,2.83
2022-11-05T03:48:20.592Z,1.99
2022-11-05T03:53:27.504Z,3.75
2022-11-05T03:58:34.685Z,2.74
2022-11-05T04:03:41.683Z,2.90
2022-11-05T04:08:50.016Z,2.88
2022-11-05T04:13:56.976Z,3.18
2022-11-05T04:19:04.053Z,1.13
2022-11-05T04:24:11.075Z,1.35
2022-11-05T04:29:18.214Z,1.74
2022-11-05T04:34:25.217Z,1.03
2022-11-05T04:39:33.765Z,2.51
2022-11-05T04:44:44.186Z,0.85
2022-11-05T04:49:41.108Z,1.37
2022-11-05T04:54:48.180Z,1.77
2022-11-05T04:59:55.306Z,1.15
2022-11-05T05:05:03.240Z,0.61
2022-11-05T05:10:10.356Z,2.21
2022-11-05T05:15:17.265Z,0.73
2022-11-05T05:20:24.354Z,2.34
2022-11-05T05:25:31.433Z,2.40
2022-11-05T05:30:39.597Z,1.22
2022-11-05T05:35:46.543Z,3.45
2022-11-05T05:40:54.130Z,1.90
2022-11-05T05:46:01.132Z,2.45
2022-11-05T05:51:08.058Z,3.00
2022-11-05T05:56:15.202Z,3.62
2022-11-05T06:01:22.029Z,1.94
2022-11-05T06:06:28.983Z,2.10
2022-11-05T06:11:35.850Z,4.22
2022-11-05T06:16:42.982Z,2.61
2022-11-05T06:21:49.944Z,3.35
2022-11-05T06:26:50.952Z,2.33
2022-11-05T06:31:57.943Z,5.78
2022-11-05T06:37:05.091Z,5.77
2022-11-05T06:42:18.491Z,1.99
2022-11-05T06:47:19.913Z,2.08
2022-11-05T06:52:26.872Z,2.31
2022-11-05T06:57:33.953Z,1.85
2022-11-05T07:02:40.971Z,2.95
2022-11-05T07:07:47.965Z,2.27
2022-11-05T07:12:55.018Z,1.47
2022-11-05T07:18:02.034Z,1.34
2022-11-05T07:23:08.891Z,1.87
2022-11-05T07:28:17.398Z,0.68
2022-11-05T07:33:23.520Z,1.55
2022-11-05T07:38:30.537Z,1.27
2022-11-05T07:43:37.708Z,1.37
2022-11-05T07:48:44.653Z,1.48
2022-11-05T07:53:51.636Z,1.19
2022-11-05T07:58:58.692Z,2.45
2022-11-05T08:04:05.657Z,1.13
2022-11-05T08:09:12.637Z,1.38
2022-11-05T08:14:19.604Z,0.88
2022-11-05T08:19:26.735Z,1.45
2022-11-05T08:24:33.669Z,1.61
2022-11-05T08:29:40.761Z,0.82
2022-11-05T08:34:47.718Z,2.35
2022-11-05T08:39:54.718Z,2.19
2022-11-05T08:45:01.639Z,15.22
2022-11-05T08:50:08.661Z,8.40
2022-11-05T08:55:15.635Z,4.86
2022-11-05T09:00:22.690Z,3.64
2022-11-05T09:05:29.601Z,2.28
2022-11-05T09:10:36.560Z,4.76
2022-11-05T09:15:43.514Z,16.53
2022-11-05T09:20:50.510Z,4.88
2022-11-05T09:25:57.452Z,2.13
2022-11-05T09:31:04.373Z,1.30
2022-11-05T09:36:11.337Z,3.52
2022-11-05T09:41:18.294Z,2.42
2022-11-05T09:46:25.207Z,5.35
2022-11-05T09:51:32.119Z,1.51
2022-11-05T09:56:39.047Z,1.28
2022-11-05T10:01:46.195Z,0.92
2022-11-05T10:06:52.993Z,2.80
2022-11-05T10:11:59.874Z,10.34
2022-11-05T10:17:06.906Z,22.35
2022-11-05T10:22:13.905Z,7.30
2022-11-05T10:27:20.792Z,4.00
2022-11-05T10:32:27.730Z,3.38
2022-11-05T10:37:39.581Z,1.85
2022-11-05T10:42:41.166Z,3.17
2022-11-05T10:47:48.075Z,4.59
2022-11-05T10:52:55.330Z,1.90
2022-11-05T10:58:02.325Z,2.04
2022-11-05T11:03:09.617Z,3.05
2022-11-05T11:08:16.427Z,1.56
2022-11-05T11:13:23.520Z,1.31
2022-11-05T11:18:32.478Z,4.10
2022-11-05T11:23:37.126Z,2.15
2022-11-05T11:28:44.056Z,1.31
2022-11-05T11:33:51.177Z,2.67
2022-11-05T11:38:58.087Z,1.17
2022-11-05T11:44:05.296Z,1.94
2022-11-05T11:49:12.317Z,2.37
2022-11-05T11:54:19.361Z,2.84
2022-11-05T11:59:46.625Z,2.08
2022-11-05T12:04:32.911Z,3.32
2022-11-05T12:09:39.807Z,2.32
2022-11-05T12:14:47.055Z,3.24
2022-11-05T12:19:50.194Z,4.04
2022-11-05T12:24:57.221Z,1.98
2022-11-05T12:30:04.141Z,2.41
2022-11-05T12:35:11.084Z,3.69
2022-11-05T12:40:17.989Z,2.19
2022-11-05T12:45:25.057Z,2.68
2022-11-05T12:50:31.963Z,9.41
2022-11-05T12:55:42.826Z,2.99
2022-11-05T13:00:45.435Z,2.21
2022-11-05T13:05:52.454Z,1.59
2022-11-05T13:10:59.450Z,1.14
2022-11-05T13:16:06.381Z,1.72
2022-11-05T13:21:13.492Z,2.61
2022-11-05T13:26:20.586Z,1.80
2022-11-05T13:31:27.546Z,1.98
2022-11-05T13:36:34.659Z,1.66
2022-11-05T13:41:41.592Z,2.42
2022-11-05T13:46:48.668Z,1.62
2022-11-05T13:51:55.572Z,3.28
2022-11-05T13:57:02.557Z,1.08
2022-11-05T14:02:09.603Z,1.09
2022-11-05T14:07:16.532Z,1.71
2022-11-05T14:12:23.651Z,1.99
2022-11-05T14:17:30.556Z,3.14
2022-11-05T14:22:37.666Z,1.66
2022-11-05T14:27:44.593Z,1.51
2022-11-05T14:32:51.507Z,1.65
2022-11-05T14:37:58.485Z,2.50
2022-11-05T14:43:05.566Z,1.87
2022-11-05T14:48:12.511Z,1.33
2022-11-05T14:53:19.580Z,2.13
2022-11-05T14:58:26.479Z,0.78
2022-11-05T15:03:38.592Z,0.78
2022-11-05T15:08:42.301Z,2.20
2022-11-05T15:13:49.458Z,0.76
2022-11-05T15:18:57.100Z,1.20
2022-11-05T15:24:04.126Z,1.49
2022-11-05T15:29:11.056Z,2.09
2022-11-05T15:34:18.101Z,6.05
2022-11-05T15:39:29.279Z,2.35
2022-11-05T15:44:35.004Z,2.35
2022-11-05T15:49:31.920Z,1.07
2022-11-05T15:54:39.109Z,1.58
2022-11-05T15:59:46.074Z,1.42
2022-11-05T16:04:53.140Z,2.71
2022-11-05T16:10:10.029Z,1.88
2022-11-05T16:15:02.435Z,1.44
2022-11-05T16:20:09.378Z,1.35
2022-11-05T16:25:16.445Z,1.02
2022-11-05T16:30:24.400Z,2.05
2022-11-05T16:35:33.998Z,1.20
2022-11-05T16:40:40.970Z,1.25
2022-11-05T16:45:48.065Z,3.03
2022-11-05T16:50:55.029Z,1.42
2022-11-05T16:55:58.224Z,1.50
2022-11-05T17:01:05.230Z,1.38
2022-11-05T17:06:12.290Z,1.94
2022-11-05T17:11:19.327Z,1.46
2022-11-05T17:16:26.411Z,1.65
2022-11-05T17:21:34.774Z,2.72
2022-11-05T17:26:42.048Z,3.46
2022-11-05T17:31:49.280Z,2.39
2022-11-05T17:36:56.253Z,5.00
2022-11-05T17:42:03.221Z,8.25
2022-11-05T17:47:10.204Z,16.52
2022-11-05T17:52:17.372Z,11.80
2022-11-05T17:57:24.656Z,4.09
2022-11-05T18:02:31.783Z,11.48
2022-11-05T18:07:38.625Z,7.88
2022-11-05T18:12:45.798Z,12.67
2022-11-05T18:17:52.744Z,10.95
2022-11-05T18:22:59.736Z,8.21
2022-11-05T18:28:06.731Z,7.09
2022-11-05T18:33:14.088Z,6.96
2022-11-05T18:38:20.307Z,6.50
2022-11-05T18:43:27.295Z,9.91
2022-11-05T18:48:34.371Z,9.83
2022-11-05T18:53:41.270Z,5.78
2022-11-05T18:58:49.207Z,5.42
2022-11-05T19:03:55.076Z,4.19
2022-11-05T19:09:02.196Z,1.08
2022-11-05T19:14:04.200Z,2.69
2022-11-05T19:19:11.235Z,3.45
2022-11-05T19:24:18.186Z,2.40
2022-11-05T19:29:25.281Z,0.82
2022-11-05T19:34:32.178Z,0.71
2022-11-05T19:39:40.657Z,1.69
2022-11-05T19:44:47.676Z,1.00
2022-11-05T19:49:54.790Z,2.12
2022-11-05T19:55:01.788Z,2.63
2022-11-05T20:00:09.020Z,1.48
2022-11-05T20:05:16.013Z,2.70
2022-11-05T20:10:23.019Z,2.52
2022-11-05T20:15:29.991Z,3.79
2022-11-05T20:20:37.014Z,4.98
2022-11-05T20:25:43.967Z,3.48
2022-11-05T20:30:52.432Z,4.55
2022-11-05T20:35:58.385Z,3.51
2022-11-05T20:41:05.518Z,5.66
2022-11-05T20:46:12.518Z,5.85
2022-11-05T20:51:19.490Z,4.74
2022-11-05T20:56:26.410Z,3.64
2022-11-05T21:01:33.544Z,2.97
2022-11-05T21:06:40.398Z,3.56
2022-11-05T21:11:47.534Z,2.56
2022-11-05T21:16:54.488Z,3.01
2022-11-05T21:22:01.504Z,8.18
2022-11-05T21:27:08.458Z,5.11
2022-11-05T21:32:15.524Z,3.40
2022-11-05T21:37:23.841Z,4.64
2022-11-05T21:42:30.037Z,24.75
2022-11-05T21:47:37.978Z,20.56
2022-11-05T21:52:48.287Z,30.67
2022-11-05T21:57:45.213Z,18.31
2022-11-05T22:02:52.452Z,2.80
2022-11-05T22:08:06.657Z,1.90
2022-11-05T22:13:04.675Z,1.69
2022-11-05T22:18:14.341Z,1.34
2022-11-05T22:23:20.452Z,2.48
2022-11-05T22:28:27.501Z,0.92
2022-11-05T22:33:34.416Z,1.56
2022-11-05T22:38:41.598Z,0.80
2022-11-05T22:43:48.502Z,1.25
2022-11-05T22:48:56.294Z,1.06
2022-11-05T22:54:03.242Z,1.16
2022-11-05T22:59:13.176Z,1.28
2022-11-05T23:04:20.156Z,2.07
2022-11-05T23:09:28.061Z,1.43
2022-11-05T23:14:35.063Z,2.86
2022-11-05T23:19:41.976Z,1.47
2022-11-05T23:24:49.110Z,1.68
2022-11-05T23:29:56.064Z,2.03
2022-11-05T23:35:03.138Z,1.53
2022-11-05T23:40:10.047Z,1.35
2022-11-05T23:45:17.217Z,1.72
2022-11-05T23:50:24.131Z,2.43
2022-11-05T23:55:31.148Z,3.54
